sensor_id;sensor_type;location;lat;lon;timestamp;P1;durP1;ratioP1;P2;durP2;ratioP2
13485;SDS011;6815;59.336;17.998;2022-09-06T00:00:07;3.60;;;1.60;;
13485;SDS011;6815;59.336;17.998;2022-09-06T00:02:36;4.87;;;1.90;;
13485;SDS011;6815;59.336;17.998;2022-09-06T00:05:02;2.37;;;2.10;;
13485;SDS011;6815;59.336;17.998;2022-09-06T00:07:28;2.60;;;1.60;;
13485;SDS011;6815;59.336;17.998;2022-09-06T00:09:54;3.17;;;1.77;;
13485;SDS011;6815;59.336;17.998;2022-09-06T00:12:22;2.00;;;1.80;;
13485;SDS011;6815;59.336;17.998;2022-09-06T00:14:48;3.73;;;1.73;;
13485;SDS011;6815;59.336;17.998;2022-09-06T00:17:15;2.10;;;1.90;;
13485;SDS011;6815;59.336;17.998;2022-09-06T00:19:41;2.27;;;1.60;;
13485;SDS011;6815;59.336;17.998;2022-09-06T00:22:07;3.30;;;1.70;;
13485;SDS011;6815;59.336;17.998;2022-09-06T00:24:33;3.53;;;1.80;;
13485;SDS011;6815;59.336;17.998;2022-09-06T00:26:58;2.10;;;1.80;;
13485;SDS011;6815;59.336;17.998;2022-09-06T00:29:25;3.23;;;1.93;;
13485;SDS011;6815;59.336;17.998;2022-09-06T00:31:52;2.53;;;1.70;;
13485;SDS011;6815;59.336;17.998;2022-09-06T00:34:19;3.83;;;1.70;;
13485;SDS011;6815;59.336;17.998;2022-09-06T00:36:45;1.80;;;1.60;;
13485;SDS011;6815;59.336;17.998;2022-09-06T00:39:11;1.90;;;1.60;;
13485;SDS011;6815;59.336;17.998;2022-09-06T00:41:36;2.20;;;1.90;;
13485;SDS011;6815;59.336;17.998;2022-09-06T00:44:03;2.10;;;1.87;;
13485;SDS011;6815;59.336;17.998;2022-09-06T00:46:30;2.30;;;1.60;;
13485;SDS011;6815;59.336;17.998;2022-09-06T00:49:01;1.50;;;1.33;;
13485;SDS011;6815;59.336;17.998;2022-09-06T00:51:48;1.80;;;1.60;;
13485;SDS011;6815;59.336;17.998;2022-09-06T00:54:18;1.33;;;1.23;;
13485;SDS011;6815;59.336;17.998;2022-09-06T00:56:50;1.53;;;1.40;;
13485;SDS011;6815;59.336;17.998;2022-09-06T00:59:19;2.10;;;1.57;;
13485;SDS011;6815;59.336;17.998;2022-09-06T01:01:44;1.37;;;1.27;;
13485;SDS011;6815;59.336;17.998;2022-09-06T01:04:10;1.70;;;1.60;;
13485;SDS011;6815;59.336;17.998;2022-09-06T01:12:37;2.87;;;1.30;;
13485;SDS011;6815;59.336;17.998;2022-09-06T01:15:26;2.50;;;1.50;;
13485;SDS011;6815;59.336;17.998;2022-09-06T01:26:03;1.23;;;1.10;;
13485;SDS011;6815;59.336;17.998;2022-09-06T01:28:40;1.20;;;1.10;;
13485;SDS011;6815;59.336;17.998;2022-09-06T01:37:13;1.20;;;1.10;;
13485;SDS011;6815;59.336;17.998;2022-09-06T01:39:27;1.20;;;1.03;;
13485;SDS011;6815;59.336;17.998;2022-09-06T01:41:56;2.07;;;1.33;;
13485;SDS011;6815;59.336;17.998;2022-09-06T01:44:25;1.83;;;1.33;;
13485;SDS011;6815;59.336;17.998;2022-09-06T01:58:57;1.27;;;1.07;;
13485;SDS011;6815;59.336;17.998;2022-09-06T02:01:51;1.93;;;1.33;;
13485;SDS011;6815;59.336;17.998;2022-09-06T02:04:45;2.20;;;1.20;;
13485;SDS011;6815;59.336;17.998;2022-09-06T02:07:22;1.53;;;1.37;;
13485;SDS011;6815;59.336;17.998;2022-09-06T02:09:54;1.70;;;1.33;;
13485;SDS011;6815;59.336;17.998;2022-09-06T02:12:24;5.67;;;1.40;;
13485;SDS011;6815;59.336;17.998;2022-09-06T02:14:58;1.63;;;1.03;;
13485;SDS011;6815;59.336;17.998;2022-09-06T02:17:31;1.30;;;1.20;;
13485;SDS011;6815;59.336;17.998;2022-09-06T02:20:07;1.40;;;1.10;;
13485;SDS011;6815;59.336;17.998;2022-09-06T02:22:39;1.40;;;1.30;;
13485;SDS011;6815;59.336;17.998;2022-09-06T02:25:09;2.17;;;1.30;;
13485;SDS011;6815;59.336;17.998;2022-09-06T02:27:39;2.47;;;1.40;;
13485;SDS011;6815;59.336;17.998;2022-09-06T02:30:05;4.13;;;1.30;;
13485;SDS011;6815;59.336;17.998;2022-09-06T02:32:32;1.37;;;1.27;;
13485;SDS011;6815;59.336;17.998;2022-09-06T02:35:04;1.57;;;1.30;;
13485;SDS011;6815;59.336;17.998;2022-09-06T02:37:36;1.30;;;1.20;;
13485;SDS011;6815;59.336;17.998;2022-09-06T02:40:02;2.17;;;1.33;;
13485;SDS011;6815;59.336;17.998;2022-09-06T02:42:28;1.30;;;1.20;;
13485;SDS011;6815;59.336;17.998;2022-09-06T02:44:54;1.50;;;1.40;;
13485;SDS011;6815;59.336;17.998;2022-09-06T02:47:20;2.30;;;1.30;;
13485;SDS011;6815;59.336;17.998;2022-09-06T02:49:45;1.40;;;1.30;;
13485;SDS011;6815;59.336;17.998;2022-09-06T02:52:11;3.13;;;1.50;;
13485;SDS011;6815;59.336;17.998;2022-09-06T02:54:36;1.47;;;1.30;;
13485;SDS011;6815;59.336;17.998;2022-09-06T02:57:02;1.40;;;1.30;;
13485;SDS011;6815;59.336;17.998;2022-09-06T02:59:30;1.10;;;1.00;;
13485;SDS011;6815;59.336;17.998;2022-09-06T03:02:00;1.47;;;1.30;;
13485;SDS011;6815;59.336;17.998;2022-09-06T03:04:26;3.67;;;1.60;;
13485;SDS011;6815;59.336;17.998;2022-09-06T03:06:52;2.90;;;1.50;;
13485;SDS011;6815;59.336;17.998;2022-09-06T03:09:17;1.60;;;1.30;;
13485;SDS011;6815;59.336;17.998;2022-09-06T03:11:43;1.40;;;1.30;;
13485;SDS011;6815;59.336;17.998;2022-09-06T03:14:10;2.67;;;1.33;;
13485;SDS011;6815;59.336;17.998;2022-09-06T03:16:35;3.00;;;1.50;;
13485;SDS011;6815;59.336;17.998;2022-09-06T03:19:03;3.20;;;1.70;;
13485;SDS011;6815;59.336;17.998;2022-09-06T03:21:28;2.40;;;1.30;;
13485;SDS011;6815;59.336;17.998;2022-09-06T03:23:54;1.17;;;1.07;;
13485;SDS011;6815;59.336;17.998;2022-09-06T03:26:20;2.27;;;1.30;;
13485;SDS011;6815;59.336;17.998;2022-09-06T03:28:47;2.17;;;1.23;;
13485;SDS011;6815;59.336;17.998;2022-09-06T03:31:14;1.30;;;1.20;;
13485;SDS011;6815;59.336;17.998;2022-09-06T03:33:43;2.33;;;1.20;;
13485;SDS011;6815;59.336;17.998;2022-09-06T03:36:08;1.30;;;1.20;;
13485;SDS011;6815;59.336;17.998;2022-09-06T03:38:34;1.23;;;1.13;;
13485;SDS011;6815;59.336;17.998;2022-09-06T03:40:59;1.33;;;1.23;;
13485;SDS011;6815;59.336;17.998;2022-09-06T03:43:26;2.10;;;1.40;;
13485;SDS011;6815;59.336;17.998;2022-09-06T03:45:53;1.30;;;1.20;;
13485;SDS011;6815;59.336;17.998;2022-09-06T03:48:24;2.37;;;1.30;;
13485;SDS011;6815;59.336;17.998;2022-09-06T03:50:53;1.23;;;1.13;;
13485;SDS011;6815;59.336;17.998;2022-09-06T03:53:21;1.63;;;1.33;;
13485;SDS011;6815;59.336;17.998;2022-09-06T03:55:49;3.93;;;1.40;;
13485;SDS011;6815;59.336;17.998;2022-09-06T03:58:17;1.83;;;1.40;;
13485;SDS011;6815;59.336;17.998;2022-09-06T04:00:45;1.27;;;1.17;;
13485;SDS011;6815;59.336;17.998;2022-09-06T04:03:11;2.47;;;1.00;;
13485;SDS011;6815;59.336;17.998;2022-09-06T04:05:37;1.60;;;1.50;;
13485;SDS011;6815;59.336;17.998;2022-09-06T04:08:03;3.67;;;1.50;;
13485;SDS011;6815;59.336;17.998;2022-09-06T04:10:31;1.23;;;1.13;;
13485;SDS011;6815;59.336;17.998;2022-09-06T04:12:57;1.87;;;1.40;;
13485;SDS011;6815;59.336;17.998;2022-09-06T04:15:23;1.63;;;1.50;;
13485;SDS011;6815;59.336;17.998;2022-09-06T04:17:48;1.83;;;1.23;;
13485;SDS011;6815;59.336;17.998;2022-09-06T04:20:14;1.40;;;1.30;;
13485;SDS011;6815;59.336;17.998;2022-09-06T04:22:40;2.10;;;1.30;;
13485;SDS011;6815;59.336;17.998;2022-09-06T04:25:06;1.60;;;1.50;;
13485;SDS011;6815;59.336;17.998;2022-09-06T04:27:32;2.70;;;1.30;;
13485;SDS011;6815;59.336;17.998;2022-09-06T04:30:01;2.40;;;1.20;;
13485;SDS011;6815;59.336;17.998;2022-09-06T04:32:27;1.70;;;1.30;;
13485;SDS011;6815;59.336;17.998;2022-09-06T04:34:55;1.47;;;1.10;;
13485;SDS011;6815;59.336;17.998;2022-09-06T04:37:20;2.23;;;1.30;;
13485;SDS011;6815;59.336;17.998;2022-09-06T04:39:49;2.00;;;1.40;;
13485;SDS011;6815;59.336;17.998;2022-09-06T04:42:14;2.43;;;1.33;;
13485;SDS011;6815;59.336;17.998;2022-09-06T04:44:41;1.43;;;1.27;;
13485;SDS011;6815;59.336;17.998;2022-09-06T04:47:12;1.53;;;1.27;;
13485;SDS011;6815;59.336;17.998;2022-09-06T04:49:40;1.53;;;1.20;;
13485;SDS011;6815;59.336;17.998;2022-09-06T04:52:08;2.17;;;1.10;;
13485;SDS011;6815;59.336;17.998;2022-09-06T04:54:36;1.27;;;1.17;;
13485;SDS011;6815;59.336;17.998;2022-09-06T04:57:02;1.60;;;1.10;;
13485;SDS011;6815;59.336;17.998;2022-09-06T04:59:28;0.90;;;0.90;;
13485;SDS011;6815;59.336;17.998;2022-09-06T05:01:54;1.93;;;1.43;;
13485;SDS011;6815;59.336;17.998;2022-09-06T05:04:19;1.57;;;1.27;;
13485;SDS011;6815;59.336;17.998;2022-09-06T05:06:47;1.37;;;1.10;;
13485;SDS011;6815;59.336;17.998;2022-09-06T05:09:13;1.20;;;1.10;;
13485;SDS011;6815;59.336;17.998;2022-09-06T05:11:41;1.70;;;1.20;;
13485;SDS011;6815;59.336;17.998;2022-09-06T05:14:06;2.47;;;1.20;;
13485;SDS011;6815;59.336;17.998;2022-09-06T05:16:36;1.13;;;1.03;;
13485;SDS011;6815;59.336;17.998;2022-09-06T05:19:10;1.40;;;1.30;;
13485;SDS011;6815;59.336;17.998;2022-09-06T05:21:36;1.50;;;1.20;;
13485;SDS011;6815;59.336;17.998;2022-09-06T05:24:03;2.20;;;1.20;;
13485;SDS011;6815;59.336;17.998;2022-09-06T05:26:30;2.70;;;1.30;;
13485;SDS011;6815;59.336;17.998;2022-09-06T05:28:55;1.67;;;1.10;;
13485;SDS011;6815;59.336;17.998;2022-09-06T05:31:28;1.23;;;0.90;;
13485;SDS011;6815;59.336;17.998;2022-09-06T05:33:55;1.40;;;1.30;;
13485;SDS011;6815;59.336;17.998;2022-09-06T05:36:22;1.20;;;1.03;;
13485;SDS011;6815;59.336;17.998;2022-09-06T05:38:49;1.47;;;1.30;;
13485;SDS011;6815;59.336;17.998;2022-09-06T05:41:15;1.17;;;1.03;;
13485;SDS011;6815;59.336;17.998;2022-09-06T05:43:43;2.60;;;1.27;;
13485;SDS011;6815;59.336;17.998;2022-09-06T05:46:12;1.30;;;1.00;;
13485;SDS011;6815;59.336;17.998;2022-09-06T05:48:39;1.03;;;0.93;;
13485;SDS011;6815;59.336;17.998;2022-09-06T05:51:09;0.80;;;0.80;;
13485;SDS011;6815;59.336;17.998;2022-09-06T05:53:39;2.13;;;1.00;;
13485;SDS011;6815;59.336;17.998;2022-09-06T05:56:09;1.83;;;1.10;;
13485;SDS011;6815;59.336;17.998;2022-09-06T05:58:36;0.80;;;0.80;;
13485;SDS011;6815;59.336;17.998;2022-09-06T06:03:51;1.23;;;0.87;;
13485;SDS011;6815;59.336;17.998;2022-09-06T06:06:18;1.03;;;0.90;;
13485;SDS011;6815;59.336;17.998;2022-09-06T06:08:44;1.17;;;1.00;;
13485;SDS011;6815;59.336;17.998;2022-09-06T06:11:12;1.30;;;1.00;;
13485;SDS011;6815;59.336;17.998;2022-09-06T06:13:38;1.47;;;1.20;;
13485;SDS011;6815;59.336;17.998;2022-09-06T06:16:09;1.37;;;0.90;;
13485;SDS011;6815;59.336;17.998;2022-09-06T06:18:36;1.73;;;0.90;;
13485;SDS011;6815;59.336;17.998;2022-09-06T06:21:06;1.47;;;0.97;;
13485;SDS011;6815;59.336;17.998;2022-09-06T06:23:32;1.03;;;0.93;;
13485;SDS011;6815;59.336;17.998;2022-09-06T06:25:57;3.40;;;0.90;;
13485;SDS011;6815;59.336;17.998;2022-09-06T06:28:24;1.87;;;1.10;;
13485;SDS011;6815;59.336;17.998;2022-09-06T06:30:50;2.13;;;1.13;;
13485;SDS011;6815;59.336;17.998;2022-09-06T06:33:15;1.10;;;1.00;;
13485;SDS011;6815;59.336;17.998;2022-09-06T06:35:40;2.03;;;1.13;;
13485;SDS011;6815;59.336;17.998;2022-09-06T06:38:06;0.93;;;0.90;;
13485;SDS011;6815;59.336;17.998;2022-09-06T06:40:31;0.97;;;0.93;;
13485;SDS011;6815;59.336;17.998;2022-09-06T06:42:57;1.60;;;1.00;;
13485;SDS011;6815;59.336;17.998;2022-09-06T06:45:22;0.80;;;0.80;;
13485;SDS011;6815;59.336;17.998;2022-09-06T06:47:48;1.27;;;0.90;;
13485;SDS011;6815;59.336;17.998;2022-09-06T06:50:14;0.80;;;0.80;;
13485;SDS011;6815;59.336;17.998;2022-09-06T06:52:40;1.20;;;1.00;;
13485;SDS011;6815;59.336;17.998;2022-09-06T06:55:05;2.67;;;0.90;;
13485;SDS011;6815;59.336;17.998;2022-09-06T06:57:31;2.00;;;0.97;;
13485;SDS011;6815;59.336;17.998;2022-09-06T06:59:58;1.43;;;0.80;;
13485;SDS011;6815;59.336;17.998;2022-09-06T07:02:24;1.17;;;0.93;;
13485;SDS011;6815;59.336;17.998;2022-09-06T07:04:50;1.03;;;0.90;;
13485;SDS011;6815;59.336;17.998;2022-09-06T07:07:16;0.93;;;0.87;;
13485;SDS011;6815;59.336;17.998;2022-09-06T07:09:41;1.00;;;0.90;;
13485;SDS011;6815;59.336;17.998;2022-09-06T07:12:08;1.63;;;1.10;;
13485;SDS011;6815;59.336;17.998;2022-09-06T07:14:33;1.63;;;0.80;;
13485;SDS011;6815;59.336;17.998;2022-09-06T07:16:59;1.87;;;1.20;;
13485;SDS011;6815;59.336;17.998;2022-09-06T07:19:24;1.77;;;1.10;;
13485;SDS011;6815;59.336;17.998;2022-09-06T07:21:50;1.77;;;1.10;;
13485;SDS011;6815;59.336;17.998;2022-09-06T07:24:15;0.80;;;0.80;;
13485;SDS011;6815;59.336;17.998;2022-09-06T07:26:42;1.43;;;0.90;;
13485;SDS011;6815;59.336;17.998;2022-09-06T07:29:09;1.90;;;1.07;;
13485;SDS011;6815;59.336;17.998;2022-09-06T07:31:36;0.80;;;0.80;;
13485;SDS011;6815;59.336;17.998;2022-09-06T07:34:02;2.17;;;0.80;;
13485;SDS011;6815;59.336;17.998;2022-09-06T07:36:29;1.47;;;1.13;;
13485;SDS011;6815;59.336;17.998;2022-09-06T07:38:54;3.33;;;1.20;;
13485;SDS011;6815;59.336;17.998;2022-09-06T07:41:20;2.17;;;0.93;;
13485;SDS011;6815;59.336;17.998;2022-09-06T07:43:46;1.00;;;0.90;;
13485;SDS011;6815;59.336;17.998;2022-09-06T07:46:14;0.80;;;0.80;;
13485;SDS011;6815;59.336;17.998;2022-09-06T07:48:41;0.93;;;0.87;;
13485;SDS011;6815;59.336;17.998;2022-09-06T07:51:12;1.03;;;0.90;;
13485;SDS011;6815;59.336;17.998;2022-09-06T07:53:43;0.87;;;0.87;;
13485;SDS011;6815;59.336;17.998;2022-09-06T07:56:14;1.93;;;1.00;;
13485;SDS011;6815;59.336;17.998;2022-09-06T07:58:40;1.03;;;0.93;;
13485;SDS011;6815;59.336;17.998;2022-09-06T08:03:58;0.80;;;0.80;;
13485;SDS011;6815;59.336;17.998;2022-09-06T08:06:27;1.27;;;0.97;;
13485;SDS011;6815;59.336;17.998;2022-09-06T08:08:55;1.10;;;1.00;;
13485;SDS011;6815;59.336;17.998;2022-09-06T08:11:21;2.07;;;0.87;;
13485;SDS011;6815;59.336;17.998;2022-09-06T08:13:51;1.10;;;0.70;;
13485;SDS011;6815;59.336;17.998;2022-09-06T08:16:21;1.80;;;0.90;;
13485;SDS011;6815;59.336;17.998;2022-09-06T08:18:51;2.10;;;1.10;;
13485;SDS011;6815;59.336;17.998;2022-09-06T08:21:18;1.63;;;1.37;;
13485;SDS011;6815;59.336;17.998;2022-09-06T08:23:45;2.37;;;1.10;;
13485;SDS011;6815;59.336;17.998;2022-09-06T08:26:12;1.30;;;1.07;;
13485;SDS011;6815;59.336;17.998;2022-09-06T08:28:37;1.00;;;0.90;;
13485;SDS011;6815;59.336;17.998;2022-09-06T08:31:03;1.00;;;0.90;;
13485;SDS011;6815;59.336;17.998;2022-09-06T08:33:30;1.10;;;1.00;;
13485;SDS011;6815;59.336;17.998;2022-09-06T08:35:56;1.10;;;1.00;;
13485;SDS011;6815;59.336;17.998;2022-09-06T08:38:22;3.30;;;1.10;;
13485;SDS011;6815;59.336;17.998;2022-09-06T08:40:49;2.23;;;1.10;;
13485;SDS011;6815;59.336;17.998;2022-09-06T08:43:19;1.07;;;1.00;;
13485;SDS011;6815;59.336;17.998;2022-09-06T08:45:46;1.10;;;0.80;;
13485;SDS011;6815;59.336;17.998;2022-09-06T08:48:17;2.13;;;0.90;;
13485;SDS011;6815;59.336;17.998;2022-09-06T08:50:44;1.03;;;0.93;;
13485;SDS011;6815;59.336;17.998;2022-09-06T08:53:24;1.10;;;1.00;;
13485;SDS011;6815;59.336;17.998;2022-09-06T08:55:51;2.27;;;1.10;;
13485;SDS011;6815;59.336;17.998;2022-09-06T09:01:02;1.67;;;0.70;;
13485;SDS011;6815;59.336;17.998;2022-09-06T09:03:34;2.97;;;0.83;;
13485;SDS011;6815;59.336;17.998;2022-09-06T09:06:02;0.93;;;0.90;;
13485;SDS011;6815;59.336;17.998;2022-09-06T09:11:25;0.80;;;0.80;;
13485;SDS011;6815;59.336;17.998;2022-09-06T09:13:57;0.83;;;0.80;;
13485;SDS011;6815;59.336;17.998;2022-09-06T09:16:41;0.80;;;0.80;;
13485;SDS011;6815;59.336;17.998;2022-09-06T09:19:07;1.10;;;1.00;;
13485;SDS011;6815;59.336;17.998;2022-09-06T09:21:35;3.73;;;2.00;;
13485;SDS011;6815;59.336;17.998;2022-09-06T09:24:03;2.03;;;1.47;;
13485;SDS011;6815;59.336;17.998;2022-09-06T09:26:41;1.52;;;1.13;;
13485;SDS011;6815;59.336;17.998;2022-09-06T09:29:14;1.48;;;1.02;;
13485;SDS011;6815;59.336;17.998;2022-09-06T09:31:51;2.95;;;1.10;;
13485;SDS011;6815;59.336;17.998;2022-09-06T09:34:32;1.98;;;1.10;;
13485;SDS011;6815;59.336;17.998;2022-09-06T09:39:49;2.58;;;1.00;;
13485;SDS011;6815;59.336;17.998;2022-09-06T09:42:50;1.33;;;0.90;;
13485;SDS011;6815;59.336;17.998;2022-09-06T09:48:14;1.13;;;1.03;;
13485;SDS011;6815;59.336;17.998;2022-09-06T09:50:44;0.77;;;0.77;;
13485;SDS011;6815;59.336;17.998;2022-09-06T09:53:12;0.80;;;0.80;;
13485;SDS011;6815;59.336;17.998;2022-09-06T09:55:40;1.73;;;0.83;;
13485;SDS011;6815;59.336;17.998;2022-09-06T09:58:20;1.47;;;1.00;;
13485;SDS011;6815;59.336;17.998;2022-09-06T10:03:38;1.15;;;1.05;;
13485;SDS011;6815;59.336;17.998;2022-09-06T10:06:07;1.42;;;1.20;;
13485;SDS011;6815;59.336;17.998;2022-09-06T10:08:37;1.23;;;1.00;;
13485;SDS011;6815;59.336;17.998;2022-09-06T10:11:09;1.27;;;1.00;;
13485;SDS011;6815;59.336;17.998;2022-09-06T10:13:36;1.45;;;0.80;;
13485;SDS011;6815;59.336;17.998;2022-09-06T10:16:02;0.80;;;0.80;;
13485;SDS011;6815;59.336;17.998;2022-09-06T10:18:29;1.20;;;0.80;;
13485;SDS011;6815;59.336;17.998;2022-09-06T10:21:08;1.60;;;1.20;;
13485;SDS011;6815;59.336;17.998;2022-09-06T10:26:09;1.65;;;1.40;;
13485;SDS011;6815;59.336;17.998;2022-09-06T10:28:44;2.40;;;1.25;;
13485;SDS011;6815;59.336;17.998;2022-09-06T10:39:58;0.98;;;0.80;;
13485;SDS011;6815;59.336;17.998;2022-09-06T10:53:12;2.72;;;1.00;;
13485;SDS011;6815;59.336;17.998;2022-09-06T10:55:49;1.10;;;1.00;;
13485;SDS011;6815;59.336;17.998;2022-09-06T10:58:26;1.42;;;1.17;;
13485;SDS011;6815;59.336;17.998;2022-09-06T11:00:55;2.00;;;1.10;;
13485;SDS011;6815;59.336;17.998;2022-09-06T11:03:31;1.95;;;0.90;;
13485;SDS011;6815;59.336;17.998;2022-09-06T11:06:07;2.00;;;1.00;;
13485;SDS011;6815;59.336;17.998;2022-09-06T11:11:41;1.33;;;0.80;;
13485;SDS011;6815;59.336;17.998;2022-09-06T11:14:13;1.52;;;0.82;;
13485;SDS011;6815;59.336;17.998;2022-09-06T11:16:50;1.00;;;0.90;;
13485;SDS011;6815;59.336;17.998;2022-09-06T11:19:25;0.77;;;0.77;;
13485;SDS011;6815;59.336;17.998;2022-09-06T11:22:11;1.05;;;0.80;;
13485;SDS011;6815;59.336;17.998;2022-09-06T11:24:57;2.47;;;1.00;;
13485;SDS011;6815;59.336;17.998;2022-09-06T11:27:42;1.77;;;0.85;;
13485;SDS011;6815;59.336;17.998;2022-09-06T11:30:12;1.25;;;1.15;;
13485;SDS011;6815;59.336;17.998;2022-09-06T11:32:41;1.55;;;1.17;;
13485;SDS011;6815;59.336;17.998;2022-09-06T11:38:00;1.20;;;1.10;;
13485;SDS011;6815;59.336;17.998;2022-09-06T11:40:37;1.23;;;1.13;;
13485;SDS011;6815;59.336;17.998;2022-09-06T11:45:41;1.27;;;1.10;;
13485;SDS011;6815;59.336;17.998;2022-09-06T11:49:08;1.42;;;0.85;;
13485;SDS011;6815;59.336;17.998;2022-09-06T11:51:41;0.70;;;0.70;;
13485;SDS011;6815;59.336;17.998;2022-09-06T12:01:40;0.90;;;0.90;;
13485;SDS011;6815;59.336;17.998;2022-09-06T12:04:22;1.27;;;1.10;;
13485;SDS011;6815;59.336;17.998;2022-09-06T12:07:07;0.80;;;0.80;;
13485;SDS011;6815;59.336;17.998;2022-09-06T12:09:37;1.88;;;0.88;;
13485;SDS011;6815;59.336;17.998;2022-09-06T12:12:04;0.98;;;0.82;;
13485;SDS011;6815;59.336;17.998;2022-09-06T12:14:35;1.38;;;1.13;;
13485;SDS011;6815;59.336;17.998;2022-09-06T12:19:49;2.05;;;1.10;;
13485;SDS011;6815;59.336;17.998;2022-09-06T12:28:01;0.82;;;0.80;;
13485;SDS011;6815;59.336;17.998;2022-09-06T12:30:36;0.80;;;0.80;;
13485;SDS011;6815;59.336;17.998;2022-09-06T12:33:08;1.10;;;1.00;;
13485;SDS011;6815;59.336;17.998;2022-09-06T12:35:38;2.63;;;1.02;;
13485;SDS011;6815;59.336;17.998;2022-09-06T12:38:04;0.88;;;0.88;;
13485;SDS011;6815;59.336;17.998;2022-09-06T12:40:33;0.90;;;0.90;;
13485;SDS011;6815;59.336;17.998;2022-09-06T12:43:07;0.90;;;0.90;;
13485;SDS011;6815;59.336;17.998;2022-09-06T12:45:35;1.00;;;0.90;;
13485;SDS011;6815;59.336;17.998;2022-09-06T12:48:08;1.08;;;1.00;;
13485;SDS011;6815;59.336;17.998;2022-09-06T12:50:36;1.05;;;0.98;;
13485;SDS011;6815;59.336;17.998;2022-09-06T12:53:02;1.33;;;1.00;;
13485;SDS011;6815;59.336;17.998;2022-09-06T12:55:41;0.85;;;0.80;;
13485;SDS011;6815;59.336;17.998;2022-09-06T12:58:09;1.85;;;0.93;;
13485;SDS011;6815;59.336;17.998;2022-09-06T13:00:39;1.20;;;1.08;;
13485;SDS011;6815;59.336;17.998;2022-09-06T13:05:50;1.17;;;1.08;;
13485;SDS011;6815;59.336;17.998;2022-09-06T13:08:22;0.85;;;0.85;;
13485;SDS011;6815;59.336;17.998;2022-09-06T13:11:10;2.15;;;1.00;;
13485;SDS011;6815;59.336;17.998;2022-09-06T13:13:46;0.95;;;0.95;;
13485;SDS011;6815;59.336;17.998;2022-09-06T13:16:35;1.55;;;1.10;;
13485;SDS011;6815;59.336;17.998;2022-09-06T13:19:17;1.20;;;0.80;;
13485;SDS011;6815;59.336;17.998;2022-09-06T13:22:07;1.85;;;0.85;;
13485;SDS011;6815;59.336;17.998;2022-09-06T13:30:04;0.80;;;0.80;;
13485;SDS011;6815;59.336;17.998;2022-09-06T13:32:31;0.90;;;0.90;;
13485;SDS011;6815;59.336;17.998;2022-09-06T13:34:59;3.20;;;1.10;;
13485;SDS011;6815;59.336;17.998;2022-09-06T13:37:25;0.80;;;0.77;;
13485;SDS011;6815;59.336;17.998;2022-09-06T13:39:53;1.80;;;0.88;;
13485;SDS011;6815;59.336;17.998;2022-09-06T13:42:31;1.23;;;1.10;;
13485;SDS011;6815;59.336;17.998;2022-09-06T13:47:43;1.55;;;1.00;;
13485;SDS011;6815;59.336;17.998;2022-09-06T13:50:09;1.90;;;0.90;;
13485;SDS011;6815;59.336;17.998;2022-09-06T13:52:34;1.85;;;0.93;;
13485;SDS011;6815;59.336;17.998;2022-09-06T13:55:00;2.17;;;1.20;;
13485;SDS011;6815;59.336;17.998;2022-09-06T13:57:25;2.92;;;0.90;;
13485;SDS011;6815;59.336;17.998;2022-09-06T13:59:52;1.33;;;0.90;;
13485;SDS011;6815;59.336;17.998;2022-09-06T14:02:17;1.10;;;1.00;;
13485;SDS011;6815;59.336;17.998;2022-09-06T14:04:44;1.65;;;1.00;;
13485;SDS011;6815;59.336;17.998;2022-09-06T14:07:10;1.05;;;1.00;;
13485;SDS011;6815;59.336;17.998;2022-09-06T14:09:37;2.60;;;1.00;;
13485;SDS011;6815;59.336;17.998;2022-09-06T14:12:03;1.23;;;1.13;;
13485;SDS011;6815;59.336;17.998;2022-09-06T14:14:30;1.70;;;0.95;;
13485;SDS011;6815;59.336;17.998;2022-09-06T14:16:56;2.38;;;1.10;;
13485;SDS011;6815;59.336;17.998;2022-09-06T14:19:22;1.65;;;1.20;;
13485;SDS011;6815;59.336;17.998;2022-09-06T14:21:48;1.77;;;0.88;;
13485;SDS011;6815;59.336;17.998;2022-09-06T14:24:14;1.45;;;1.00;;
13485;SDS011;6815;59.336;17.998;2022-09-06T14:26:41;1.25;;;1.15;;
13485;SDS011;6815;59.336;17.998;2022-09-06T14:29:08;1.38;;;0.90;;
13485;SDS011;6815;59.336;17.998;2022-09-06T14:31:34;3.88;;;1.20;;
13485;SDS011;6815;59.336;17.998;2022-09-06T14:33:59;1.27;;;1.08;;
13485;SDS011;6815;59.336;17.998;2022-09-06T14:36:26;1.30;;;1.13;;
13485;SDS011;6815;59.336;17.998;2022-09-06T14:38:56;1.20;;;1.02;;
13485;SDS011;6815;59.336;17.998;2022-09-06T14:41:22;1.35;;;1.25;;
13485;SDS011;6815;59.336;17.998;2022-09-06T14:43:48;2.45;;;1.30;;
13485;SDS011;6815;59.336;17.998;2022-09-06T14:46:16;2.22;;;1.17;;
13485;SDS011;6815;59.336;17.998;2022-09-06T14:48:43;1.25;;;1.15;;
13485;SDS011;6815;59.336;17.998;2022-09-06T14:51:10;1.35;;;1.10;;
13485;SDS011;6815;59.336;17.998;2022-09-06T14:53:38;1.73;;;1.10;;
13485;SDS011;6815;59.336;17.998;2022-09-06T14:56:08;1.92;;;1.10;;
13485;SDS011;6815;59.336;17.998;2022-09-06T14:58:35;2.85;;;1.20;;
13485;SDS011;6815;59.336;17.998;2022-09-06T15:01:17;2.05;;;0.90;;
13485;SDS011;6815;59.336;17.998;2022-09-06T15:03:46;1.02;;;0.98;;
13485;SDS011;6815;59.336;17.998;2022-09-06T15:06:13;1.73;;;1.10;;
13485;SDS011;6815;59.336;17.998;2022-09-06T15:08:39;1.58;;;1.00;;
13485;SDS011;6815;59.336;17.998;2022-09-06T15:11:06;1.38;;;1.10;;
13485;SDS011;6815;59.336;17.998;2022-09-06T15:13:35;1.13;;;0.80;;
13485;SDS011;6815;59.336;17.998;2022-09-06T15:16:02;1.13;;;1.02;;
13485;SDS011;6815;59.336;17.998;2022-09-06T15:18:32;1.10;;;1.00;;
13485;SDS011;6815;59.336;17.998;2022-09-06T15:21:08;3.15;;;1.10;;
13485;SDS011;6815;59.336;17.998;2022-09-06T15:23:36;1.00;;;0.90;;
13485;SDS011;6815;59.336;17.998;2022-09-06T15:26:03;1.33;;;1.08;;
13485;SDS011;6815;59.336;17.998;2022-09-06T15:28:34;1.30;;;1.20;;
13485;SDS011;6815;59.336;17.998;2022-09-06T15:31:01;2.83;;;1.20;;
13485;SDS011;6815;59.336;17.998;2022-09-06T15:33:33;2.00;;;1.20;;
13485;SDS011;6815;59.336;17.998;2022-09-06T15:36:00;1.65;;;1.10;;
13485;SDS011;6815;59.336;17.998;2022-09-06T15:38:35;0.90;;;0.90;;
13485;SDS011;6815;59.336;17.998;2022-09-06T15:41:09;1.13;;;1.02;;
13485;SDS011;6815;59.336;17.998;2022-09-06T15:43:37;1.50;;;1.00;;
13485;SDS011;6815;59.336;17.998;2022-09-06T15:46:09;2.05;;;1.00;;
13485;SDS011;6815;59.336;17.998;2022-09-06T15:48:53;2.58;;;1.20;;
13485;SDS011;6815;59.336;17.998;2022-09-06T15:51:31;2.22;;;1.02;;
13485;SDS011;6815;59.336;17.998;2022-09-06T15:53:58;1.30;;;0.90;;
13485;SDS011;6815;59.336;17.998;2022-09-06T15:56:24;2.00;;;1.00;;
13485;SDS011;6815;59.336;17.998;2022-09-06T15:58:50;1.02;;;0.95;;
13485;SDS011;6815;59.336;17.998;2022-09-06T16:01:17;1.45;;;1.20;;
13485;SDS011;6815;59.336;17.998;2022-09-06T16:03:46;0.88;;;0.88;;
13485;SDS011;6815;59.336;17.998;2022-09-06T16:06:18;1.23;;;1.08;;
13485;SDS011;6815;59.336;17.998;2022-09-06T16:08:46;1.75;;;0.90;;
13485;SDS011;6815;59.336;17.998;2022-09-06T16:11:13;1.60;;;1.00;;
13485;SDS011;6815;59.336;17.998;2022-09-06T16:13:41;1.00;;;0.90;;
13485;SDS011;6815;59.336;17.998;2022-09-06T16:16:08;1.58;;;1.05;;
13485;SDS011;6815;59.336;17.998;2022-09-06T16:18:36;1.75;;;1.20;;
13485;SDS011;6815;59.336;17.998;2022-09-06T16:21:07;1.40;;;0.90;;
13485;SDS011;6815;59.336;17.998;2022-09-06T16:23:33;1.85;;;1.00;;
13485;SDS011;6815;59.336;17.998;2022-09-06T16:26:00;1.83;;;1.00;;
13485;SDS011;6815;59.336;17.998;2022-09-06T16:28:30;1.23;;;1.13;;
13485;SDS011;6815;59.336;17.998;2022-09-06T16:31:00;1.25;;;0.98;;
13485;SDS011;6815;59.336;17.998;2022-09-06T16:33:28;1.13;;;1.00;;
13485;SDS011;6815;59.336;17.998;2022-09-06T16:35:53;2.10;;;1.10;;
13485;SDS011;6815;59.336;17.998;2022-09-06T16:38:19;2.38;;;1.10;;
13485;SDS011;6815;59.336;17.998;2022-09-06T16:40:45;2.20;;;1.13;;
13485;SDS011;6815;59.336;17.998;2022-09-06T16:43:10;1.88;;;1.17;;
13485;SDS011;6815;59.336;17.998;2022-09-06T16:45:36;1.77;;;1.10;;
13485;SDS011;6815;59.336;17.998;2022-09-06T16:48:03;1.60;;;1.20;;